sensor_id;sensor_type;location;lat;lon;timestamp;P1;durP1;ratioP1;P2;durP2;ratioP2
30185;SDS011;31152;49.190;8.122;2023-11-21T00:01:29;10.80;;;3.25;;
30185;SDS011;31152;49.190;8.122;2023-11-21T00:03:56;12.55;;;3.58;;
30185;SDS011;31152;49.190;8.122;2023-11-21T00:06:28;8.55;;;3.08;;
30185;SDS011;31152;49.190;8.122;2023-11-21T00:08:57;11.23;;;3.70;;
30185;SDS011;31152;49.190;8.122;2023-11-21T00:11:23;13.48;;;3.70;;
30185;SDS011;31152;49.190;8.122;2023-11-21T00:13:51;13.80;;;3.72;;
30185;SDS011;31152;49.190;8.122;2023-11-21T00:16:20;10.82;;;4.07;;
30185;SDS011;31152;49.190;8.122;2023-11-21T00:18:48;14.13;;;4.85;;
30185;SDS011;31152;49.190;8.122;2023-11-21T00:21:15;15.05;;;3.80;;
30185;SDS011;31152;49.190;8.122;2023-11-21T00:23:42;19.33;;;4.63;;
30185;SDS011;31152;49.190;8.122;2023-11-21T00:26:11;16.08;;;4.25;;
30185;SDS011;31152;49.190;8.122;2023-11-21T00:28:38;16.83;;;4.38;;
30185;SDS011;31152;49.190;8.122;2023-11-21T00:31:06;14.57;;;4.47;;
30185;SDS011;31152;49.190;8.122;2023-11-21T00:33:32;15.70;;;4.45;;
30185;SDS011;31152;49.190;8.122;2023-11-21T00:36:00;10.27;;;4.18;;
30185;SDS011;31152;49.190;8.122;2023-11-21T00:38:26;17.73;;;4.10;;
30185;SDS011;31152;49.190;8.122;2023-11-21T00:40:53;11.13;;;3.97;;
30185;SDS011;31152;49.190;8.122;2023-11-21T00:43:22;11.05;;;4.30;;
30185;SDS011;31152;49.190;8.122;2023-11-21T00:45:51;12.57;;;4.13;;
30185;SDS011;31152;49.190;8.122;2023-11-21T00:48:20;9.80;;;4.07;;
30185;SDS011;31152;49.190;8.122;2023-11-21T00:50:49;12.77;;;4.28;;
30185;SDS011;31152;49.190;8.122;2023-11-21T00:53:16;15.75;;;3.78;;
30185;SDS011;31152;49.190;8.122;2023-11-21T00:55:43;9.13;;;3.63;;
30185;SDS011;31152;49.190;8.122;2023-11-21T00:58:11;9.40;;;3.60;;
30185;SDS011;31152;49.190;8.122;2023-11-21T01:00:37;11.68;;;3.55;;
30185;SDS011;31152;49.190;8.122;2023-11-21T01:03:05;9.95;;;3.42;;
30185;SDS011;31152;49.190;8.122;2023-11-21T01:05:34;12.40;;;3.47;;
30185;SDS011;31152;49.190;8.122;2023-11-21T01:08:01;9.52;;;3.40;;
30185;SDS011;31152;49.190;8.122;2023-11-21T01:10:30;13.68;;;3.85;;
30185;SDS011;31152;49.190;8.122;2023-11-21T01:12:59;16.42;;;3.20;;
30185;SDS011;31152;49.190;8.122;2023-11-21T01:15:30;11.88;;;3.55;;
30185;SDS011;31152;49.190;8.122;2023-11-21T01:18:05;13.20;;;3.67;;
30185;SDS011;31152;49.190;8.122;2023-11-21T01:20:31;8.52;;;2.95;;
30185;SDS011;31152;49.190;8.122;2023-11-21T01:22:58;10.85;;;2.90;;
30185;SDS011;31152;49.190;8.122;2023-11-21T01:25:25;14.50;;;3.40;;
30185;SDS011;31152;49.190;8.122;2023-11-21T01:27:55;12.45;;;3.95;;
30185;SDS011;31152;49.190;8.122;2023-11-21T01:30:22;13.32;;;3.00;;
30185;SDS011;31152;49.190;8.122;2023-11-21T01:32:51;9.02;;;3.53;;
30185;SDS011;31152;49.190;8.122;2023-11-21T01:35:18;11.68;;;3.10;;
30185;SDS011;31152;49.190;8.122;2023-11-21T01:37:45;13.25;;;3.72;;
30185;SDS011;31152;49.190;8.122;2023-11-21T01:40:12;10.10;;;3.67;;
30185;SDS011;31152;49.190;8.122;2023-11-21T01:42:42;12.93;;;3.28;;
30185;SDS011;31152;49.190;8.122;2023-11-21T01:45:13;10.88;;;3.42;;
30185;SDS011;31152;49.190;8.122;2023-11-21T01:47:40;8.18;;;3.30;;
30185;SDS011;31152;49.190;8.122;2023-11-21T01:50:09;10.93;;;3.40;;
30185;SDS011;31152;49.190;8.122;2023-11-21T01:52:39;11.23;;;3.40;;
30185;SDS011;31152;49.190;8.122;2023-11-21T01:55:10;7.30;;;3.53;;
30185;SDS011;31152;49.190;8.122;2023-11-21T02:00:12;7.90;;;2.97;;
30185;SDS011;31152;49.190;8.122;2023-11-21T02:02:43;7.85;;;3.03;;
30185;SDS011;31152;49.190;8.122;2023-11-21T02:05:10;14.30;;;2.88;;
30185;SDS011;31152;49.190;8.122;2023-11-21T02:07:41;7.18;;;2.80;;
30185;SDS011;31152;49.190;8.122;2023-11-21T02:10:15;7.47;;;2.80;;
30185;SDS011;31152;49.190;8.122;2023-11-21T02:12:42;7.18;;;2.92;;
30185;SDS011;31152;49.190;8.122;2023-11-21T02:15:11;9.57;;;3.13;;
30185;SDS011;31152;49.190;8.122;2023-11-21T02:17:46;8.20;;;3.22;;
30185;SDS011;31152;49.190;8.122;2023-11-21T02:20:18;10.93;;;3.05;;
30185;SDS011;31152;49.190;8.122;2023-11-21T02:25:29;9.98;;;2.65;;
30185;SDS011;31152;49.190;8.122;2023-11-21T02:28:01;7.00;;;2.50;;
30185;SDS011;31152;49.190;8.122;2023-11-21T02:30:29;10.45;;;2.78;;
30185;SDS011;31152;49.190;8.122;2023-11-21T02:32:59;7.05;;;3.10;;
30185;SDS011;31152;49.190;8.122;2023-11-21T02:35:27;8.18;;;3.00;;
30185;SDS011;31152;49.190;8.122;2023-11-21T02:37:54;7.93;;;2.60;;
30185;SDS011;31152;49.190;8.122;2023-11-21T02:40:22;8.38;;;3.00;;
30185;SDS011;31152;49.190;8.122;2023-11-21T02:42:51;9.20;;;2.65;;
30185;SDS011;31152;49.190;8.122;2023-11-21T02:45:18;6.72;;;2.90;;
30185;SDS011;31152;49.190;8.122;2023-11-21T02:47:50;6.68;;;2.20;;
30185;SDS011;31152;49.190;8.122;2023-11-21T02:50:23;4.55;;;2.35;;
30185;SDS011;31152;49.190;8.122;2023-11-21T02:52:50;6.75;;;2.33;;
30185;SDS011;31152;49.190;8.122;2023-11-21T02:55:19;8.07;;;2.60;;
30185;SDS011;31152;49.190;8.122;2023-11-21T02:57:48;5.65;;;2.10;;
30185;SDS011;31152;49.190;8.122;2023-11-21T03:00:15;10.23;;;3.25;;
30185;SDS011;31152;49.190;8.122;2023-11-21T03:02:42;9.23;;;2.70;;
30185;SDS011;31152;49.190;8.122;2023-11-21T03:05:10;9.27;;;2.30;;
30185;SDS011;31152;49.190;8.122;2023-11-21T03:07:37;8.52;;;2.20;;
30185;SDS011;31152;49.190;8.122;2023-11-21T03:10:04;9.07;;;2.60;;
30185;SDS011;31152;49.190;8.122;2023-11-21T03:12:33;9.85;;;2.20;;
30185;SDS011;31152;49.190;8.122;2023-11-21T03:14:59;4.82;;;2.00;;
30185;SDS011;31152;49.190;8.122;2023-11-21T03:17:27;5.32;;;2.50;;
30185;SDS011;31152;49.190;8.122;2023-11-21T03:19:59;5.38;;;2.10;;
30185;SDS011;31152;49.190;8.122;2023-11-21T03:22:26;4.30;;;2.03;;
30185;SDS011;31152;49.190;8.122;2023-11-21T03:24:53;7.07;;;2.38;;
30185;SDS011;31152;49.190;8.122;2023-11-21T03:27:19;8.35;;;2.10;;
30185;SDS011;31152;49.190;8.122;2023-11-21T03:29:47;9.55;;;2.25;;
30185;SDS011;31152;49.190;8.122;2023-11-21T03:32:14;7.95;;;2.30;;
30185;SDS011;31152;49.190;8.122;2023-11-21T03:35:00;8.98;;;2.20;;
30185;SDS011;31152;49.190;8.122;2023-11-21T03:37:28;3.70;;;2.30;;
30185;SDS011;31152;49.190;8.122;2023-11-21T03:39:55;4.68;;;1.90;;
30185;SDS011;31152;49.190;8.122;2023-11-21T03:42:23;12.32;;;3.75;;
30185;SDS011;31152;49.190;8.122;2023-11-21T03:44:52;9.63;;;2.90;;
30185;SDS011;31152;49.190;8.122;2023-11-21T03:47:19;9.77;;;2.60;;
30185;SDS011;31152;49.190;8.122;2023-11-21T03:49:46;12.05;;;2.70;;
30185;SDS011;31152;49.190;8.122;2023-11-21T03:52:13;7.35;;;2.70;;
30185;SDS011;31152;49.190;8.122;2023-11-21T03:54:43;8.60;;;2.22;;
30185;SDS011;31152;49.190;8.122;2023-11-21T03:57:10;4.88;;;2.05;;
30185;SDS011;31152;49.190;8.122;2023-11-21T03:59:41;6.13;;;2.38;;
30185;SDS011;31152;49.190;8.122;2023-11-21T04:02:08;8.63;;;2.40;;
30185;SDS011;31152;49.190;8.122;2023-11-21T04:04:35;4.72;;;2.30;;
30185;SDS011;31152;49.190;8.122;2023-11-21T04:07:03;5.38;;;2.15;;
30185;SDS011;31152;49.190;8.122;2023-11-21T04:09:30;5.28;;;2.20;;
30185;SDS011;31152;49.190;8.122;2023-11-21T04:11:57;6.93;;;2.35;;
30185;SDS011;31152;49.190;8.122;2023-11-21T04:14:24;4.47;;;2.00;;
30185;SDS011;31152;49.190;8.122;2023-11-21T04:16:50;4.68;;;2.35;;
30185;SDS011;31152;49.190;8.122;2023-11-21T04:19:17;2.83;;;1.88;;
30185;SDS011;31152;49.190;8.122;2023-11-21T04:21:46;3.85;;;1.60;;
30185;SDS011;31152;49.190;8.122;2023-11-21T04:24:13;2.97;;;1.50;;
30185;SDS011;31152;49.190;8.122;2023-11-21T04:26:40;5.88;;;1.70;;
30185;SDS011;31152;49.190;8.122;2023-11-21T04:29:07;4.72;;;1.95;;
30185;SDS011;31152;49.190;8.122;2023-11-21T04:31:34;4.93;;;2.08;;
30185;SDS011;31152;49.190;8.122;2023-11-21T04:34:00;4.53;;;1.98;;
30185;SDS011;31152;49.190;8.122;2023-11-21T04:36:27;6.07;;;2.58;;
30185;SDS011;31152;49.190;8.122;2023-11-21T04:38:54;6.45;;;2.65;;
30185;SDS011;31152;49.190;8.122;2023-11-21T04:41:21;7.30;;;2.20;;
30185;SDS011;31152;49.190;8.122;2023-11-21T04:43:48;3.92;;;2.35;;
30185;SDS011;31152;49.190;8.122;2023-11-21T04:46:17;7.90;;;2.17;;
30185;SDS011;31152;49.190;8.122;2023-11-21T04:48:44;6.32;;;2.40;;
30185;SDS011;31152;49.190;8.122;2023-11-21T04:51:10;7.78;;;2.53;;
30185;SDS011;31152;49.190;8.122;2023-11-21T04:53:39;4.18;;;2.20;;
30185;SDS011;31152;49.190;8.122;2023-11-21T04:56:05;6.90;;;2.30;;
30185;SDS011;31152;49.190;8.122;2023-11-21T04:58:35;6.47;;;2.33;;
30185;SDS011;31152;49.190;8.122;2023-11-21T05:01:02;5.05;;;2.47;;
30185;SDS011;31152;49.190;8.122;2023-11-21T05:03:33;4.13;;;2.15;;
30185;SDS011;31152;49.190;8.122;2023-11-21T05:06:01;5.60;;;2.28;;
30185;SDS011;31152;49.190;8.122;2023-11-21T05:08:27;5.72;;;2.00;;
30185;SDS011;31152;49.190;8.122;2023-11-21T05:10:54;6.45;;;2.22;;
30185;SDS011;31152;49.190;8.122;2023-11-21T05:13:21;3.30;;;1.73;;
30185;SDS011;31152;49.190;8.122;2023-11-21T05:15:54;4.40;;;2.03;;
30185;SDS011;31152;49.190;8.122;2023-11-21T05:18:25;3.60;;;2.20;;
30185;SDS011;31152;49.190;8.122;2023-11-21T05:20:56;12.38;;;2.47;;
30185;SDS011;31152;49.190;8.122;2023-11-21T05:23:27;3.80;;;2.00;;
30185;SDS011;31152;49.190;8.122;2023-11-21T05:25:54;5.88;;;2.22;;
30185;SDS011;31152;49.190;8.122;2023-11-21T05:28:22;6.80;;;2.20;;
30185;SDS011;31152;49.190;8.122;2023-11-21T05:30:49;5.72;;;2.42;;
30185;SDS011;31152;49.190;8.122;2023-11-21T05:33:28;4.95;;;2.30;;
30185;SDS011;31152;49.190;8.122;2023-11-21T05:35:55;8.32;;;2.63;;
30185;SDS011;31152;49.190;8.122;2023-11-21T05:38:24;4.15;;;2.47;;
30185;SDS011;31152;49.190;8.122;2023-11-21T05:40:50;4.38;;;2.72;;
30185;SDS011;31152;49.190;8.122;2023-11-21T05:43:17;4.38;;;2.65;;
30185;SDS011;31152;49.190;8.122;2023-11-21T05:45:44;4.75;;;2.67;;
30185;SDS011;31152;49.190;8.122;2023-11-21T05:48:11;4.57;;;2.60;;
30185;SDS011;31152;49.190;8.122;2023-11-21T05:50:38;6.32;;;2.53;;
30185;SDS011;31152;49.190;8.122;2023-11-21T05:53:05;6.57;;;2.95;;
30185;SDS011;31152;49.190;8.122;2023-11-21T05:55:36;11.32;;;2.88;;
30185;SDS011;31152;49.190;8.122;2023-11-21T05:58:08;4.95;;;2.75;;
30185;SDS011;31152;49.190;8.122;2023-11-21T06:00:35;5.38;;;2.85;;
30185;SDS011;31152;49.190;8.122;2023-11-21T06:03:02;5.45;;;2.92;;
30185;SDS011;31152;49.190;8.122;2023-11-21T06:05:32;5.47;;;2.35;;
30185;SDS011;31152;49.190;8.122;2023-11-21T06:07:59;4.38;;;2.40;;
30185;SDS011;31152;49.190;8.122;2023-11-21T06:10:27;4.55;;;2.47;;
30185;SDS011;31152;49.190;8.122;2023-11-21T06:12:55;4.50;;;2.33;;
30185;SDS011;31152;49.190;8.122;2023-11-21T06:15:21;5.00;;;2.50;;
30185;SDS011;31152;49.190;8.122;2023-11-21T06:17:49;5.47;;;2.65;;
30185;SDS011;31152;49.190;8.122;2023-11-21T06:20:20;4.88;;;2.72;;
30185;SDS011;31152;49.190;8.122;2023-11-21T06:22:48;4.10;;;2.20;;
30185;SDS011;31152;49.190;8.122;2023-11-21T06:25:19;7.13;;;2.30;;
30185;SDS011;31152;49.190;8.122;2023-11-21T06:27:47;8.65;;;2.80;;
30185;SDS011;31152;49.190;8.122;2023-11-21T06:30:14;6.40;;;3.45;;
30185;SDS011;31152;49.190;8.122;2023-11-21T06:32:42;2.97;;;2.42;;
30185;SDS011;31152;49.190;8.122;2023-11-21T06:35:18;6.80;;;2.40;;
30185;SDS011;31152;49.190;8.122;2023-11-21T06:37:45;3.70;;;2.60;;
30185;SDS011;31152;49.190;8.122;2023-11-21T06:40:14;7.95;;;2.53;;
30185;SDS011;31152;49.190;8.122;2023-11-21T06:42:47;4.78;;;2.78;;
30185;SDS011;31152;49.190;8.122;2023-11-21T06:45:15;7.68;;;3.50;;
30185;SDS011;31152;49.190;8.122;2023-11-21T06:47:42;7.57;;;2.80;;
30185;SDS011;31152;49.190;8.122;2023-11-21T06:50:09;7.10;;;2.90;;
30185;SDS011;31152;49.190;8.122;2023-11-21T06:52:36;6.32;;;3.15;;
30185;SDS011;31152;49.190;8.122;2023-11-21T06:55:05;4.25;;;2.83;;
30185;SDS011;31152;49.190;8.122;2023-11-21T06:57:43;5.53;;;2.60;;
30185;SDS011;31152;49.190;8.122;2023-11-21T07:00:10;5.63;;;3.00;;
30185;SDS011;31152;49.190;8.122;2023-11-21T07:02:38;5.07;;;2.25;;
30185;SDS011;31152;49.190;8.122;2023-11-21T07:05:05;3.83;;;2.08;;
30185;SDS011;31152;49.190;8.122;2023-11-21T07:07:33;4.13;;;2.58;;
30185;SDS011;31152;49.190;8.122;2023-11-21T07:10:05;3.65;;;2.20;;
30185;SDS011;31152;49.190;8.122;2023-11-21T07:12:32;3.17;;;2.63;;
30185;SDS011;31152;49.190;8.122;2023-11-21T07:14:59;4.05;;;2.88;;
30185;SDS011;31152;49.190;8.122;2023-11-21T07:17:29;7.18;;;2.75;;
30185;SDS011;31152;49.190;8.122;2023-11-21T07:19:56;3.92;;;3.00;;
30185;SDS011;31152;49.190;8.122;2023-11-21T07:22:25;7.70;;;2.97;;
30185;SDS011;31152;49.190;8.122;2023-11-21T07:24:52;4.68;;;2.30;;
30185;SDS011;31152;49.190;8.122;2023-11-21T07:27:22;3.53;;;1.88;;
30185;SDS011;31152;49.190;8.122;2023-11-21T07:29:54;3.17;;;2.20;;
30185;SDS011;31152;49.190;8.122;2023-11-21T07:32:20;3.42;;;1.90;;
30185;SDS011;31152;49.190;8.122;2023-11-21T07:34:47;3.83;;;1.98;;
30185;SDS011;31152;49.190;8.122;2023-11-21T07:37:14;3.05;;;2.10;;
30185;SDS011;31152;49.190;8.122;2023-11-21T07:39:41;4.57;;;2.40;;
30185;SDS011;31152;49.190;8.122;2023-11-21T07:42:08;4.55;;;2.50;;
30185;SDS011;31152;49.190;8.122;2023-11-21T07:44:37;3.88;;;2.35;;
30185;SDS011;31152;49.190;8.122;2023-11-21T07:47:04;6.68;;;3.35;;
30185;SDS011;31152;49.190;8.122;2023-11-21T07:49:31;4.07;;;2.63;;
30185;SDS011;31152;49.190;8.122;2023-11-21T07:52:01;5.88;;;2.65;;
30185;SDS011;31152;49.190;8.122;2023-11-21T07:54:27;3.45;;;2.28;;
30185;SDS011;31152;49.190;8.122;2023-11-21T07:56:54;3.85;;;2.33;;
30185;SDS011;31152;49.190;8.122;2023-11-21T07:59:21;3.30;;;2.20;;
30185;SDS011;31152;49.190;8.122;2023-11-21T08:01:48;3.88;;;2.17;;
30185;SDS011;31152;49.190;8.122;2023-11-21T08:04:16;4.03;;;2.30;;
30185;SDS011;31152;49.190;8.122;2023-11-21T08:06:43;4.22;;;2.40;;
30185;SDS011;31152;49.190;8.122;2023-11-21T08:09:14;2.95;;;2.05;;
30185;SDS011;31152;49.190;8.122;2023-11-21T08:11:43;3.35;;;2.13;;
30185;SDS011;31152;49.190;8.122;2023-11-21T08:14:11;2.97;;;1.98;;
30185;SDS011;31152;49.190;8.122;2023-11-21T08:16:37;4.53;;;2.03;;
30185;SDS011;31152;49.190;8.122;2023-11-21T08:19:04;3.67;;;1.92;;
30185;SDS011;31152;49.190;8.122;2023-11-21T08:21:32;3.08;;;1.73;;
30185;SDS011;31152;49.190;8.122;2023-11-21T08:23:59;3.58;;;2.08;;
30185;SDS011;31152;49.190;8.122;2023-11-21T08:26:26;3.50;;;2.58;;
30185;SDS011;31152;49.190;8.122;2023-11-21T08:28:53;4.43;;;2.30;;
30185;SDS011;31152;49.190;8.122;2023-11-21T08:31:25;3.45;;;2.08;;
30185;SDS011;31152;49.190;8.122;2023-11-21T08:33:52;5.03;;;2.45;;
30185;SDS011;31152;49.190;8.122;2023-11-21T08:36:23;4.43;;;2.20;;
30185;SDS011;31152;49.190;8.122;2023-11-21T08:38:51;3.40;;;2.25;;
30185;SDS011;31152;49.190;8.122;2023-11-21T08:41:18;6.05;;;2.85;;
30185;SDS011;31152;49.190;8.122;2023-11-21T08:43:48;2.83;;;2.22;;
30185;SDS011;31152;49.190;8.122;2023-11-21T08:46:20;9.32;;;3.10;;
30185;SDS011;31152;49.190;8.122;2023-11-21T08:48:47;5.40;;;2.85;;
30185;SDS011;31152;49.190;8.122;2023-11-21T08:51:14;6.70;;;2.60;;
30185;SDS011;31152;49.190;8.122;2023-11-21T08:53:42;4.93;;;2.38;;
30185;SDS011;31152;49.190;8.122;2023-11-21T08:56:15;2.58;;;2.10;;
30185;SDS011;31152;49.190;8.122;2023-11-21T08:58:42;4.18;;;1.90;;
30185;SDS011;31152;49.190;8.122;2023-11-21T09:01:08;2.83;;;1.73;;
30185;SDS011;31152;49.190;8.122;2023-11-21T09:03:35;2.83;;;1.80;;
30185;SDS011;31152;49.190;8.122;2023-11-21T09:06:05;3.25;;;1.92;;
30185;SDS011;31152;49.190;8.122;2023-11-21T09:08:38;2.92;;;2.08;;
30185;SDS011;31152;49.190;8.122;2023-11-21T09:11:05;6.70;;;1.90;;
30185;SDS011;31152;49.190;8.122;2023-11-21T09:13:34;3.25;;;2.03;;
30185;SDS011;31152;49.190;8.122;2023-11-21T09:16:01;2.33;;;1.65;;
30185;SDS011;31152;49.190;8.122;2023-11-21T09:18:28;2.25;;;1.58;;
30185;SDS011;31152;49.190;8.122;2023-11-21T09:21:00;2.22;;;1.33;;
30185;SDS011;31152;49.190;8.122;2023-11-21T09:23:27;4.10;;;1.38;;
30185;SDS011;31152;49.190;8.122;2023-11-21T09:25:54;2.20;;;1.35;;
30185;SDS011;31152;49.190;8.122;2023-11-21T09:28:23;3.63;;;1.50;;
30185;SDS011;31152;49.190;8.122;2023-11-21T09:30:53;2.15;;;1.15;;
30185;SDS011;31152;49.190;8.122;2023-11-21T09:33:23;2.50;;;1.20;;
30185;SDS011;31152;49.190;8.122;2023-11-21T09:35:54;1.23;;;0.93;;
30185;SDS011;31152;49.190;8.122;2023-11-21T09:38:23;2.95;;;1.83;;
30185;SDS011;31152;49.190;8.122;2023-11-21T09:40:51;2.60;;;1.52;;
30185;SDS011;31152;49.190;8.122;2023-11-21T09:43:20;3.70;;;1.20;;
30185;SDS011;31152;49.190;8.122;2023-11-21T09:45:54;2.28;;;1.23;;
30185;SDS011;31152;49.190;8.122;2023-11-21T09:48:26;3.30;;;1.20;;
30185;SDS011;31152;49.190;8.122;2023-11-21T09:50:53;3.85;;;1.48;;
30185;SDS011;31152;49.190;8.122;2023-11-21T09:53:26;2.55;;;1.30;;
30185;SDS011;31152;49.190;8.122;2023-11-21T09:56:00;2.85;;;1.40;;
30185;SDS011;31152;49.190;8.122;2023-11-21T09:58:28;2.95;;;1.30;;
30185;SDS011;31152;49.190;8.122;2023-11-21T10:01:00;2.47;;;1.23;;
30185;SDS011;31152;49.190;8.122;2023-11-21T10:03:29;2.10;;;1.30;;
30185;SDS011;31152;49.190;8.122;2023-11-21T10:05:58;3.25;;;1.30;;
30185;SDS011;31152;49.190;8.122;2023-11-21T10:08:31;2.00;;;1.35;;
30185;SDS011;31152;49.190;8.122;2023-11-21T10:11:15;3.60;;;1.50;;
30185;SDS011;31152;49.190;8.122;2023-11-21T10:13:45;1.48;;;1.38;;
30185;SDS011;31152;49.190;8.122;2023-11-21T10:16:14;2.72;;;1.35;;
30185;SDS011;31152;49.190;8.122;2023-11-21T10:21:19;3.33;;;1.88;;
30185;SDS011;31152;49.190;8.122;2023-11-21T10:23:46;4.20;;;1.70;;
30185;SDS011;31152;49.190;8.122;2023-11-21T10:26:13;2.72;;;1.55;;
30185;SDS011;31152;49.190;8.122;2023-11-21T10:28:59;1.85;;;1.10;;
30185;SDS011;31152;49.190;8.122;2023-11-21T10:31:27;1.98;;;1.23;;
30185;SDS011;31152;49.190;8.122;2023-11-21T10:33:54;1.92;;;1.38;;
30185;SDS011;31152;49.190;8.122;2023-11-21T10:36:37;3.10;;;1.20;;
30185;SDS011;31152;49.190;8.122;2023-11-21T10:39:03;3.35;;;1.35;;
30185;SDS011;31152;49.190;8.122;2023-11-21T10:41:33;1.58;;;1.10;;
30185;SDS011;31152;49.190;8.122;2023-11-21T10:44:02;3.60;;;1.40;;
30185;SDS011;31152;49.190;8.122;2023-11-21T10:46:33;3.28;;;1.77;;
30185;SDS011;31152;49.190;8.122;2023-11-21T10:49:01;4.25;;;1.60;;
30185;SDS011;31152;49.190;8.122;2023-11-21T10:51:30;2.28;;;1.30;;
30185;SDS011;31152;49.190;8.122;2023-11-21T10:53:56;1.90;;;1.17;;
30185;SDS011;31152;49.190;8.122;2023-11-21T10:56:26;1.90;;;1.35;;
30185;SDS011;31152;49.190;8.122;2023-11-21T10:58:56;6.43;;;1.30;;
30185;SDS011;31152;49.190;8.122;2023-11-21T11:01:27;3.05;;;1.23;;
30185;SDS011;31152;49.190;8.122;2023-11-21T11:03:56;3.65;;;1.13;;
30185;SDS011;31152;49.190;8.122;2023-11-21T11:06:24;2.80;;;1.20;;
30185;SDS011;31152;49.190;8.122;2023-11-21T11:08:54;3.78;;;1.20;;
30185;SDS011;31152;49.190;8.122;2023-11-21T11:11:25;1.90;;;1.55;;
30185;SDS011;31152;49.190;8.122;2023-11-21T11:13:52;2.90;;;1.73;;
30185;SDS011;31152;49.190;8.122;2023-11-21T11:16:20;2.97;;;1.70;;
30185;SDS011;31152;49.190;8.122;2023-11-21T11:18:48;4.47;;;1.77;;
30185;SDS011;31152;49.190;8.122;2023-11-21T11:24:29;3.40;;;1.67;;
30185;SDS011;31152;49.190;8.122;2023-11-21T11:30:00;4.00;;;2.03;;
30185;SDS011;31152;49.190;8.122;2023-11-21T11:32:53;3.42;;;1.85;;
30185;SDS011;31152;49.190;8.122;2023-11-21T11:35:33;2.03;;;1.83;;
30185;SDS011;31152;49.190;8.122;2023-11-21T11:38:23;4.85;;;2.72;;
30185;SDS011;31152;49.190;8.122;2023-11-21T11:40:52;3.05;;;2.22;;
30185;SDS011;31152;49.190;8.122;2023-11-21T11:43:24;2.53;;;1.75;;
30185;SDS011;31152;49.190;8.122;2023-11-21T11:45:55;4.35;;;2.20;;
30185;SDS011;31152;49.190;8.122;2023-11-21T11:48:22;3.72;;;2.45;;
30185;SDS011;31152;49.190;8.122;2023-11-21T11:51:03;4.57;;;1.98;;
30185;SDS011;31152;49.190;8.122;2023-11-21T11:53:37;2.63;;;1.67;;
30185;SDS011;31152;49.190;8.122;2023-11-21T11:58:55;4.38;;;1.38;;
30185;SDS011;31152;49.190;8.122;2023-11-21T12:01:26;3.38;;;1.60;;
30185;SDS011;31152;49.190;8.122;2023-11-21T12:06:46;1.35;;;1.00;;
30185;SDS011;31152;49.190;8.122;2023-11-21T12:09:20;1.42;;;0.90;;
30185;SDS011;31152;49.190;8.122;2023-11-21T12:11:51;1.77;;;1.02;;
30185;SDS011;31152;49.190;8.122;2023-11-21T12:14:18;3.05;;;0.75;;
30185;SDS011;31152;49.190;8.122;2023-11-21T12:16:45;3.70;;;1.35;;
30185;SDS011;31152;49.190;8.122;2023-11-21T12:19:12;1.95;;;0.70;;
30185;SDS011;31152;49.190;8.122;2023-11-21T12:21:39;1.63;;;0.70;;
30185;SDS011;31152;49.190;8.122;2023-11-21T12:24:10;1.77;;;0.70;;
30185;SDS011;31152;49.190;8.122;2023-11-21T12:26:41;1.65;;;0.73;;
30185;SDS011;31152;49.190;8.122;2023-11-21T12:29:09;0.93;;;0.63;;
30185;SDS011;31152;49.190;8.122;2023-11-21T12:31:37;2.33;;;0.90;;
30185;SDS011;31152;49.190;8.122;2023-11-21T12:34:04;2.90;;;1.00;;
30185;SDS011;31152;49.190;8.122;2023-11-21T12:36:33;1.65;;;0.80;;
30185;SDS011;31152;49.190;8.122;2023-11-21T12:39:02;1.98;;;0.85;;
30185;SDS011;31152;49.190;8.122;2023-11-21T12:41:29;2.70;;;0.80;;
30185;SDS011;31152;49.190;8.122;2023-11-21T12:43:57;3.92;;;0.98;;
30185;SDS011;31152;49.190;8.122;2023-11-21T12:46:25;1.45;;;0.80;;
30185;SDS011;31152;49.190;8.122;2023-11-21T12:48:55;1.33;;;0.80;;
30185;SDS011;31152;49.190;8.122;2023-11-21T12:51:24;2.60;;;0.82;;
30185;SDS011;31152;49.190;8.122;2023-11-21T12:53:51;1.70;;;0.80;;
30185;SDS011;31152;49.190;8.122;2023-11-21T12:56:20;1.15;;;0.75;;
30185;SDS011;31152;49.190;8.122;2023-11-21T12:58:49;2.00;;;0.70;;
30185;SDS011;31152;49.190;8.122;2023-11-21T13:01:19;2.08;;;0.98;;
30185;SDS011;31152;49.190;8.122;2023-11-21T13:03:48;3.15;;;1.13;;
30185;SDS011;31152;49.190;8.122;2023-11-21T13:06:17;2.20;;;1.20;;
30185;SDS011;31152;49.190;8.122;2023-11-21T13:08:46;2.45;;;0.70;;
30185;SDS011;31152;49.190;8.122;2023-11-21T13:11:13;1.67;;;0.70;;
30185;SDS011;31152;49.190;8.122;2023-11-21T13:13:43;2.33;;;1.10;;
30185;SDS011;31152;49.190;8.122;2023-11-21T13:16:13;3.47;;;1.10;;
30185;SDS011;31152;49.190;8.122;2023-11-21T13:18:41;2.88;;;0.85;;
30185;SDS011;31152;49.190;8.122;2023-11-21T13:21:09;4.22;;;1.00;;
30185;SDS011;31152;49.190;8.122;2023-11-21T13:23:40;2.20;;;1.13;;
30185;SDS011;31152;49.190;8.122;2023-11-21T13:26:12;2.50;;;1.10;;
30185;SDS011;31152;49.190;8.122;2023-11-21T13:28:41;5.22;;;1.08;;
30185;SDS011;31152;49.190;8.122;2023-11-21T13:31:13;3.30;;;1.30;;
30185;SDS011;31152;49.190;8.122;2023-11-21T13:33:57;2.53;;;1.10;;
30185;SDS011;31152;49.190;8.122;2023-11-21T13:36:31;3.67;;;1.17;;
30185;SDS011;31152;49.190;8.122;2023-11-21T13:39:02;5.63;;;1.35;;
30185;SDS011;31152;49.190;8.122;2023-11-21T13:41:42;3.17;;;1.20;;
30185;SDS011;31152;49.190;8.122;2023-11-21T13:44:09;4.13;;;1.52;;
30185;SDS011;31152;49.190;8.122;2023-11-21T13:46:53;3.90;;;1.50;;
30185;SDS011;31152;49.190;8.122;2023-11-21T13:49:23;5.35;;;1.30;;
30185;SDS011;31152;49.190;8.122;2023-11-21T13:51:51;3.17;;;1.50;;
30185;SDS011;31152;49.190;8.122;2023-11-21T13:54:21;6.53;;;1.77;;
30185;SDS011;31152;49.190;8.122;2023-11-21T13:56:50;5.45;;;1.95;;
30185;SDS011;31152;49.190;8.122;2023-11-21T13:59:17;5.75;;;2.00;;
30185;SDS011;31152;49.190;8.122;2023-11-21T14:01:52;6.55;;;1.75;;
30185;SDS011;31152;49.190;8.122;2023-11-21T14:04:23;4.45;;;1.40;;
30185;SDS011;31152;49.190;8.122;2023-11-21T14:06:57;3.53;;;1.20;;
30185;SDS011;31152;49.190;8.122;2023-11-21T14:09:27;6.53;;;1.90;;
30185;SDS011;31152;49.190;8.122;2023-11-21T14:12:02;6.78;;;1.90;;
30185;SDS011;31152;49.190;8.122;2023-11-21T14:14:33;5.18;;;2.50;;
30185;SDS011;31152;49.190;8.122;2023-11-21T14:17:00;6.25;;;2.47;;
30185;SDS011;31152;49.190;8.122;2023-11-21T14:19:33;6.82;;;2.25;;
30185;SDS011;31152;49.190;8.122;2023-11-21T14:22:03;6.95;;;2.67;;
30185;SDS011;31152;49.190;8.122;2023-11-21T14:24:30;7.75;;;2.40;;
30185;SDS011;31152;49.190;8.122;2023-11-21T14:27:00;7.03;;;2.70;;
30185;SDS011;31152;49.190;8.122;2023-11-21T14:29:27;8.18;;;2.65;;
30185;SDS011;31152;49.190;8.122;2023-11-21T14:31:56;7.40;;;2.53;;
30185;SDS011;31152;49.190;8.122;2023-11-21T14:34:24;7.55;;;2.50;;
30185;SDS011;31152;49.190;8.122;2023-11-21T14:36:53;7.70;;;2.70;;
30185;SDS011;31152;49.190;8.122;2023-11-21T14:39:29;9.68;;;2.38;;
30185;SDS011;31152;49.190;8.122;2023-11-21T14:42:04;4.78;;;2.15;;
30185;SDS011;31152;49.190;8.122;2023-11-21T14:44:34;9.45;;;2.60;;
30185;SDS011;31152;49.190;8.122;2023-11-21T14:47:05;9.88;;;2.50;;
30185;SDS011;31152;49.190;8.122;2023-11-21T14:49:39;8.73;;;2.33;;
30185;SDS011;31152;49.190;8.122;2023-11-21T14:52:22;7.88;;;2.47;;
30185;SDS011;31152;49.190;8.122;2023-11-21T14:55:02;5.00;;;2.20;;
30185;SDS011;31152;49.190;8.122;2023-11-21T14:57:48;7.60;;;2.75;;
30185;SDS011;31152;49.190;8.122;2023-11-21T15:00:17;10.57;;;2.80;;
30185;SDS011;31152;49.190;8.122;2023-11-21T15:03:18;7.28;;;2.60;;
30185;SDS011;31152;49.190;8.122;2023-11-21T15:06:00;7.18;;;2.42;;
30185;SDS011;31152;49.190;8.122;2023-11-21T15:08:48;7.65;;;2.70;;
30185;SDS011;31152;49.190;8.122;2023-11-21T15:11:35;6.68;;;2.67;;
30185;SDS011;31152;49.190;8.122;2023-11-21T15:14:04;6.05;;;2.55;;
30185;SDS011;31152;49.190;8.122;2023-11-21T15:16:36;8.80;;;3.05;;
30185;SDS011;31152;49.190;8.122;2023-11-21T15:19:09;9.40;;;2.45;;